sensor_id;sensor_type;location;lat;lon;timestamp;pressure;altitude;pressure_sealevel;temperature;humidity
6349;BME280;3207;42.648;23.406;2024-02-26T00:00:39;99090.38;;;8.84;82.61
6349;BME280;3207;42.648;23.406;2024-02-26T00:03:08;99092.28;;;8.81;82.56
6349;BME280;3207;42.648;23.406;2024-02-26T00:05:34;99082.13;;;8.78;82.29
6349;BME280;3207;42.648;23.406;2024-02-26T00:08:04;99088.28;;;8.77;82.03
6349;BME280;3207;42.648;23.406;2024-02-26T00:10:31;99091.13;;;8.74;82.61
6349;BME280;3207;42.648;23.406;2024-02-26T00:12:58;99089.59;;;8.72;82.25
6349;BME280;3207;42.648;23.406;2024-02-26T00:15:25;99094.91;;;8.70;81.90
6349;BME280;3207;42.648;23.406;2024-02-26T00:17:53;99094.59;;;8.64;82.06
6349;BME280;3207;42.648;23.406;2024-02-26T00:20:21;99084.69;;;8.47;82.27
6349;BME280;3207;42.648;23.406;2024-02-26T00:22:48;99096.72;;;8.48;82.44
6349;BME280;3207;42.648;23.406;2024-02-26T00:25:15;99081.38;;;8.33;82.91
6349;BME280;3207;42.648;23.406;2024-02-26T00:27:42;99095.69;;;8.39;83.26
6349;BME280;3207;42.648;23.406;2024-02-26T00:30:10;99079.59;;;8.23;83.55
6349;BME280;3207;42.648;23.406;2024-02-26T00:32:37;99085.13;;;8.29;83.56
6349;BME280;3207;42.648;23.406;2024-02-26T00:35:05;99055.69;;;8.06;83.97
6349;BME280;3207;42.648;23.406;2024-02-26T00:37:33;99091.66;;;8.24;84.59
6349;BME280;3207;42.648;23.406;2024-02-26T00:40:00;99093.31;;;8.25;84.16
6349;BME280;3207;42.648;23.406;2024-02-26T00:42:27;99066.69;;;8.10;84.27
6349;BME280;3207;42.648;23.406;2024-02-26T00:44:54;99079.00;;;8.19;84.39
6349;BME280;3207;42.648;23.406;2024-02-26T00:47:21;99073.22;;;8.16;84.67
6349;BME280;3207;42.648;23.406;2024-02-26T00:49:48;99071.56;;;8.15;84.60
6349;BME280;3207;42.648;23.406;2024-02-26T00:52:15;99075.09;;;8.14;84.46
6349;BME280;3207;42.648;23.406;2024-02-26T00:54:43;99070.34;;;8.07;84.92
6349;BME280;3207;42.648;23.406;2024-02-26T00:57:10;99068.47;;;8.09;84.98
6349;BME280;3207;42.648;23.406;2024-02-26T00:59:37;99057.72;;;8.03;84.93
6349;BME280;3207;42.648;23.406;2024-02-26T01:02:04;99060.88;;;8.06;85.35
6349;BME280;3207;42.648;23.406;2024-02-26T01:04:32;99060.31;;;8.03;85.63
6349;BME280;3207;42.648;23.406;2024-02-26T01:06:59;99053.78;;;7.97;85.75
6349;BME280;3207;42.648;23.406;2024-02-26T01:09:26;99060.66;;;7.98;86.02
6349;BME280;3207;42.648;23.406;2024-02-26T01:11:54;99035.47;;;7.88;85.99
6349;BME280;3207;42.648;23.406;2024-02-26T01:14:21;99055.69;;;7.95;86.11
6349;BME280;3207;42.648;23.406;2024-02-26T01:16:49;99056.78;;;7.93;86.10
6349;BME280;3207;42.648;23.406;2024-02-26T01:19:16;99054.28;;;7.91;86.19
6349;BME280;3207;42.648;23.406;2024-02-26T01:21:42;99050.38;;;7.86;85.34
6349;BME280;3207;42.648;23.406;2024-02-26T01:24:09;99056.41;;;7.86;86.10
6349;BME280;3207;42.648;23.406;2024-02-26T01:26:36;99053.06;;;7.84;85.45
6349;BME280;3207;42.648;23.406;2024-02-26T01:29:05;99056.66;;;7.83;85.54
6349;BME280;3207;42.648;23.406;2024-02-26T01:31:31;99060.41;;;7.79;85.62
6349;BME280;3207;42.648;23.406;2024-02-26T01:33:58;99060.66;;;7.76;85.39
6349;BME280;3207;42.648;23.406;2024-02-26T01:36:25;99059.94;;;7.74;85.06
6349;BME280;3207;42.648;23.406;2024-02-26T01:38:52;99064.44;;;7.72;86.06
6349;BME280;3207;42.648;23.406;2024-02-26T01:41:19;99051.66;;;7.69;85.79
6349;BME280;3207;42.648;23.406;2024-02-26T01:43:45;99065.13;;;7.74;86.00
6349;BME280;3207;42.648;23.406;2024-02-26T01:46:14;99053.91;;;7.73;85.71
6349;BME280;3207;42.648;23.406;2024-02-26T01:48:44;99049.53;;;7.74;85.97
6349;BME280;3207;42.648;23.406;2024-02-26T01:51:14;99051.28;;;7.73;86.21
6349;BME280;3207;42.648;23.406;2024-02-26T01:53:43;99047.91;;;7.73;86.93
6349;BME280;3207;42.648;23.406;2024-02-26T01:56:11;99046.09;;;7.73;86.75
6349;BME280;3207;42.648;23.406;2024-02-26T01:58:38;99048.00;;;7.71;86.36
6349;BME280;3207;42.648;23.406;2024-02-26T02:01:05;99019.63;;;7.57;86.10
6349;BME280;3207;42.648;23.406;2024-02-26T02:03:33;99043.03;;;7.68;85.96
6349;BME280;3207;42.648;23.406;2024-02-26T02:06:01;99044.19;;;7.64;86.41
6349;BME280;3207;42.648;23.406;2024-02-26T02:08:28;98992.53;;;7.38;86.03
6349;BME280;3207;42.648;23.406;2024-02-26T02:10:55;99048.00;;;7.60;85.60
6349;BME280;3207;42.648;23.406;2024-02-26T02:13:23;99032.00;;;7.43;85.50
6349;BME280;3207;42.648;23.406;2024-02-26T02:15:50;99049.28;;;7.55;85.21
6349;BME280;3207;42.648;23.406;2024-02-26T02:18:17;99051.63;;;7.47;85.70
6349;BME280;3207;42.648;23.406;2024-02-26T02:20:45;99049.03;;;7.47;85.46
6349;BME280;3207;42.648;23.406;2024-02-26T02:23:13;99047.72;;;7.41;85.38
6349;BME280;3207;42.648;23.406;2024-02-26T02:25:40;99057.41;;;7.39;85.33
6349;BME280;3207;42.648;23.406;2024-02-26T02:28:07;99059.72;;;7.31;85.31
6349;BME280;3207;42.648;23.406;2024-02-26T02:30:34;99053.75;;;7.30;84.88
6349;BME280;3207;42.648;23.406;2024-02-26T02:33:01;99043.06;;;7.22;85.07
6349;BME280;3207;42.648;23.406;2024-02-26T02:35:28;99054.78;;;7.28;85.81
6349;BME280;3207;42.648;23.406;2024-02-26T02:37:57;99052.28;;;7.26;85.25
6349;BME280;3207;42.648;23.406;2024-02-26T02:40:24;99047.09;;;7.26;84.88
6349;BME280;3207;42.648;23.406;2024-02-26T02:42:51;99053.97;;;7.27;85.27
6349;BME280;3207;42.648;23.406;2024-02-26T02:45:18;99020.31;;;7.02;85.09
6349;BME280;3207;42.648;23.406;2024-02-26T02:47:45;99049.91;;;7.23;85.39
6349;BME280;3207;42.648;23.406;2024-02-26T02:50:12;99045.78;;;7.21;85.70
6349;BME280;3207;42.648;23.406;2024-02-26T02:52:39;99050.84;;;7.22;84.82
6349;BME280;3207;42.648;23.406;2024-02-26T02:55:08;99050.16;;;7.20;85.27
6349;BME280;3207;42.648;23.406;2024-02-26T02:57:35;99037.38;;;7.17;85.68
6349;BME280;3207;42.648;23.406;2024-02-26T03:00:07;99022.00;;;7.03;84.60
6349;BME280;3207;42.648;23.406;2024-02-26T03:02:34;99039.38;;;7.14;85.10
6349;BME280;3207;42.648;23.406;2024-02-26T03:05:02;99043.03;;;7.11;85.34
6349;BME280;3207;42.648;23.406;2024-02-26T03:07:29;99034.53;;;7.09;84.73
6349;BME280;3207;42.648;23.406;2024-02-26T03:09:56;99032.16;;;7.06;85.63
6349;BME280;3207;42.648;23.406;2024-02-26T03:12:24;99014.38;;;6.89;85.58
6349;BME280;3207;42.648;23.406;2024-02-26T03:14:53;99031.56;;;7.03;85.69
6349;BME280;3207;42.648;23.406;2024-02-26T03:17:20;99033.69;;;6.97;85.21
6349;BME280;3207;42.648;23.406;2024-02-26T03:19:49;99034.09;;;6.91;85.33
6349;BME280;3207;42.648;23.406;2024-02-26T03:22:18;99038.22;;;6.83;85.43
6349;BME280;3207;42.648;23.406;2024-02-26T03:24:45;99041.41;;;6.86;85.84
6349;BME280;3207;42.648;23.406;2024-02-26T03:27:12;99042.34;;;6.85;85.54
6349;BME280;3207;42.648;23.406;2024-02-26T03:29:41;99043.41;;;6.83;85.21
6349;BME280;3207;42.648;23.406;2024-02-26T03:32:08;99034.06;;;6.80;85.39
6349;BME280;3207;42.648;23.406;2024-02-26T03:34:35;99043.88;;;6.77;86.00
6349;BME280;3207;42.648;23.406;2024-02-26T03:37:04;99015.47;;;6.63;86.39
6349;BME280;3207;42.648;23.406;2024-02-26T03:39:31;99019.72;;;6.64;86.61
6349;BME280;3207;42.648;23.406;2024-02-26T03:41:58;99033.59;;;6.75;87.03
6349;BME280;3207;42.648;23.406;2024-02-26T03:44:25;99029.44;;;6.73;86.42
6349;BME280;3207;42.648;23.406;2024-02-26T03:46:53;99035.09;;;6.67;87.55
6349;BME280;3207;42.648;23.406;2024-02-26T03:49:21;99017.78;;;6.54;87.31
6349;BME280;3207;42.648;23.406;2024-02-26T03:51:48;99025.84;;;6.63;87.66
6349;BME280;3207;42.648;23.406;2024-02-26T03:54:15;99024.81;;;6.65;87.37
6349;BME280;3207;42.648;23.406;2024-02-26T03:56:42;99028.34;;;6.64;87.49
6349;BME280;3207;42.648;23.406;2024-02-26T03:59:09;99033.53;;;6.64;86.97
6349;BME280;3207;42.648;23.406;2024-02-26T04:01:36;99027.50;;;6.64;86.80
6349;BME280;3207;42.648;23.406;2024-02-26T04:04:05;98983.00;;;6.33;87.20
6349;BME280;3207;42.648;23.406;2024-02-26T04:06:32;99030.78;;;6.54;86.79
6349;BME280;3207;42.648;23.406;2024-02-26T04:08:59;99025.00;;;6.62;86.38
6349;BME280;3207;42.648;23.406;2024-02-26T04:11:29;99031.03;;;6.63;86.41
6349;BME280;3207;42.648;23.406;2024-02-26T04:13:56;99034.09;;;6.56;87.04
6349;BME280;3207;42.648;23.406;2024-02-26T04:16:23;99031.81;;;6.52;86.82
6349;BME280;3207;42.648;23.406;2024-02-26T04:18:50;99028.84;;;6.45;87.05
6349;BME280;3207;42.648;23.406;2024-02-26T04:21:20;99033.19;;;6.45;87.17
6349;BME280;3207;42.648;23.406;2024-02-26T04:23:47;99029.03;;;6.42;87.26
6349;BME280;3207;42.648;23.406;2024-02-26T04:26:14;99033.41;;;6.42;86.90
6349;BME280;3207;42.648;23.406;2024-02-26T04:28:41;98994.47;;;6.18;87.24
6349;BME280;3207;42.648;23.406;2024-02-26T04:31:08;99028.31;;;6.40;87.57
6349;BME280;3207;42.648;23.406;2024-02-26T04:33:35;99041.50;;;6.37;87.02
6349;BME280;3207;42.648;23.406;2024-02-26T04:36:02;99023.28;;;6.26;87.66
6349;BME280;3207;42.648;23.406;2024-02-26T04:38:31;99039.84;;;6.36;87.69
6349;BME280;3207;42.648;23.406;2024-02-26T04:40:58;99037.50;;;6.33;87.48
6349;BME280;3207;42.648;23.406;2024-02-26T04:43:25;99034.91;;;6.33;87.94
6349;BME280;3207;42.648;23.406;2024-02-26T04:45:52;99038.31;;;6.34;87.73
6349;BME280;3207;42.648;23.406;2024-02-26T04:48:18;99019.97;;;6.24;87.66
6349;BME280;3207;42.648;23.406;2024-02-26T04:50:45;99035.31;;;6.27;87.36
6349;BME280;3207;42.648;23.406;2024-02-26T04:53:12;99025.16;;;6.24;87.66
6349;BME280;3207;42.648;23.406;2024-02-26T04:55:42;99018.31;;;6.23;87.71
6349;BME280;3207;42.648;23.406;2024-02-26T04:58:08;99023.50;;;6.23;86.94
6349;BME280;3207;42.648;23.406;2024-02-26T05:00:36;99016.88;;;6.19;87.57
6349;BME280;3207;42.648;23.406;2024-02-26T05:03:03;99006.69;;;6.16;87.35
6349;BME280;3207;42.648;23.406;2024-02-26T05:05:33;99014.28;;;6.19;87.54
6349;BME280;3207;42.648;23.406;2024-02-26T05:08:00;99015.31;;;6.16;87.61
6349;BME280;3207;42.648;23.406;2024-02-26T05:10:28;99019.66;;;6.16;87.62
6349;BME280;3207;42.648;23.406;2024-02-26T05:12:56;99021.66;;;6.12;87.42
6349;BME280;3207;42.648;23.406;2024-02-26T05:15:23;99020.84;;;6.12;87.88
6349;BME280;3207;42.648;23.406;2024-02-26T05:17:50;98987.06;;;5.88;87.28
6349;BME280;3207;42.648;23.406;2024-02-26T05:20:18;99016.69;;;6.09;87.46
6349;BME280;3207;42.648;23.406;2024-02-26T05:22:45;99016.91;;;6.06;87.32
6349;BME280;3207;42.648;23.406;2024-02-26T05:25:14;99011.81;;;6.05;87.90
6349;BME280;3207;42.648;23.406;2024-02-26T05:27:43;99006.13;;;6.00;87.30
6349;BME280;3207;42.648;23.406;2024-02-26T05:30:12;99004.78;;;5.94;87.78
6349;BME280;3207;42.648;23.406;2024-02-26T05:32:39;99019.94;;;6.00;87.85
6349;BME280;3207;42.648;23.406;2024-02-26T05:35:07;99019.09;;;6.00;87.65
6349;BME280;3207;42.648;23.406;2024-02-26T05:37:34;99025.22;;;5.99;88.22
6349;BME280;3207;42.648;23.406;2024-02-26T05:40:01;99030.41;;;5.99;88.16
6349;BME280;3207;42.648;23.406;2024-02-26T05:42:30;99029.69;;;5.97;88.64
6349;BME280;3207;42.648;23.406;2024-02-26T05:44:57;99035.41;;;6.02;87.94
6349;BME280;3207;42.648;23.406;2024-02-26T05:47:25;99029.28;;;6.03;88.29
6349;BME280;3207;42.648;23.406;2024-02-26T05:49:52;99024.78;;;6.05;88.56
6349;BME280;3207;42.648;23.406;2024-02-26T05:52:20;98998.06;;;5.92;87.86
6349;BME280;3207;42.648;23.406;2024-02-26T05:54:47;99029.34;;;6.14;88.04
6349;BME280;3207;42.648;23.406;2024-02-26T05:57:14;98996.03;;;6.08;88.13
6349;BME280;3207;42.648;23.406;2024-02-26T05:59:41;99028.59;;;6.48;88.17
6349;BME280;3207;42.648;23.406;2024-02-26T06:02:08;99025.78;;;6.75;88.61
6349;BME280;3207;42.648;23.406;2024-02-26T06:04:36;99030.97;;;7.10;87.03
6349;BME280;3207;42.648;23.406;2024-02-26T06:07:04;99038.44;;;7.72;85.31
6349;BME280;3207;42.648;23.406;2024-02-26T06:09:32;99041.47;;;8.44;81.52
6349;BME280;3207;42.648;23.406;2024-02-26T06:11:59;99045.72;;;9.20;77.45
6349;BME280;3207;42.648;23.406;2024-02-26T06:14:26;99022.91;;;9.64;73.53
6349;BME280;3207;42.648;23.406;2024-02-26T06:16:53;99054.22;;;10.24;71.57
6349;BME280;3207;42.648;23.406;2024-02-26T06:19:20;99053.09;;;11.06;69.09
6349;BME280;3207;42.648;23.406;2024-02-26T06:21:48;99064.38;;;12.01;65.06
6349;BME280;3207;42.648;23.406;2024-02-26T06:24:16;99066.50;;;13.05;61.58
6349;BME280;3207;42.648;23.406;2024-02-26T06:26:43;99071.22;;;14.07;57.91
6349;BME280;3207;42.648;23.406;2024-02-26T06:29:10;99064.28;;;14.90;54.50
6349;BME280;3207;42.648;23.406;2024-02-26T06:31:37;99076.13;;;15.83;51.26
6349;BME280;3207;42.648;23.406;2024-02-26T06:34:04;99077.53;;;16.57;49.04
6349;BME280;3207;42.648;23.406;2024-02-26T06:36:31;99074.03;;;17.64;46.42
6349;BME280;3207;42.648;23.406;2024-02-26T06:39:05;99086.44;;;19.02;42.91
6349;BME280;3207;42.648;23.406;2024-02-26T06:41:33;99086.00;;;20.66;39.25
6349;BME280;3207;42.648;23.406;2024-02-26T06:44:01;99092.25;;;22.25;35.97
6349;BME280;3207;42.648;23.406;2024-02-26T06:46:28;99103.94;;;23.58;32.60
6349;BME280;3207;42.648;23.406;2024-02-26T06:48:56;99108.31;;;24.75;30.30
6349;BME280;3207;42.648;23.406;2024-02-26T06:51:23;99101.91;;;25.89;28.65
6349;BME280;3207;42.648;23.406;2024-02-26T06:53:50;99109.75;;;27.06;27.17
6349;BME280;3207;42.648;23.406;2024-02-26T06:56:18;99101.31;;;28.31;25.62
6349;BME280;3207;42.648;23.406;2024-02-26T06:58:47;99111.56;;;29.53;23.57
6349;BME280;3207;42.648;23.406;2024-02-26T07:01:14;99113.16;;;30.70;22.76
6349;BME280;3207;42.648;23.406;2024-02-26T07:03:41;99123.88;;;31.73;21.44
6349;BME280;3207;42.648;23.406;2024-02-26T07:06:08;99124.75;;;32.68;20.42
6349;BME280;3207;42.648;23.406;2024-02-26T07:08:35;99128.91;;;33.49;19.60
6349;BME280;3207;42.648;23.406;2024-02-26T07:11:03;99132.25;;;34.33;18.84
6349;BME280;3207;42.648;23.406;2024-02-26T07:13:35;99126.22;;;35.21;18.18
6349;BME280;3207;42.648;23.406;2024-02-26T07:16:02;99134.88;;;35.93;16.96
6349;BME280;3207;42.648;23.406;2024-02-26T07:18:29;99108.75;;;36.52;16.79
6349;BME280;3207;42.648;23.406;2024-02-26T07:20:56;99119.88;;;37.19;16.27
6349;BME280;3207;42.648;23.406;2024-02-26T07:23:23;99132.41;;;37.64;15.82
6349;BME280;3207;42.648;23.406;2024-02-26T07:25:50;99128.22;;;38.12;15.42
6349;BME280;3207;42.648;23.406;2024-02-26T07:28:18;99124.31;;;38.43;15.02
6349;BME280;3207;42.648;23.406;2024-02-26T07:30:47;99121.38;;;38.88;15.00
6349;BME280;3207;42.648;23.406;2024-02-26T07:33:14;99137.84;;;39.57;14.09
6349;BME280;3207;42.648;23.406;2024-02-26T07:35:41;99145.41;;;40.24;14.37
6349;BME280;3207;42.648;23.406;2024-02-26T07:38:08;99145.47;;;40.83;13.56
6349;BME280;3207;42.648;23.406;2024-02-26T07:40:35;99138.34;;;41.32;12.71
6349;BME280;3207;42.648;23.406;2024-02-26T07:43:02;99146.41;;;41.70;12.75
6349;BME280;3207;42.648;23.406;2024-02-26T07:45:29;99144.47;;;42.16;12.59
6349;BME280;3207;42.648;23.406;2024-02-26T07:47:58;99139.78;;;42.65;12.24
6349;BME280;3207;42.648;23.406;2024-02-26T07:50:25;99152.00;;;43.04;11.86
6349;BME280;3207;42.648;23.406;2024-02-26T07:52:52;99151.16;;;43.28;11.74
6349;BME280;3207;42.648;23.406;2024-02-26T07:55:19;99077.94;;;42.34;12.09
6349;BME280;3207;42.648;23.406;2024-02-26T07:57:47;99134.13;;;42.00;12.36
6349;BME280;3207;42.648;23.406;2024-02-26T08:00:15;99148.88;;;41.96;12.52
6349;BME280;3207;42.648;23.406;2024-02-26T08:02:43;99110.25;;;41.80;12.23
6349;BME280;3207;42.648;23.406;2024-02-26T08:05:11;99158.38;;;41.53;13.11
6349;BME280;3207;42.648;23.406;2024-02-26T08:07:38;99167.97;;;40.21;13.76
6349;BME280;3207;42.648;23.406;2024-02-26T08:10:06;99151.72;;;38.61;14.22
6349;BME280;3207;42.648;23.406;2024-02-26T08:12:33;99162.41;;;36.38;15.85
6349;BME280;3207;42.648;23.406;2024-02-26T08:15:00;99137.25;;;34.44;17.10
6349;BME280;3207;42.648;23.406;2024-02-26T08:17:27;99151.03;;;33.22;18.10
6349;BME280;3207;42.648;23.406;2024-02-26T08:19:54;99147.41;;;31.88;19.27
6349;BME280;3207;42.648;23.406;2024-02-26T08:22:23;99146.94;;;30.88;20.42
6349;BME280;3207;42.648;23.406;2024-02-26T08:24:51;99133.16;;;30.79;20.34
6349;BME280;3207;42.648;23.406;2024-02-26T08:27:18;99144.38;;;31.44;20.46
6349;BME280;3207;42.648;23.406;2024-02-26T08:29:45;99153.59;;;31.53;20.53
6349;BME280;3207;42.648;23.406;2024-02-26T08:32:12;99145.16;;;32.35;19.79
6349;BME280;3207;42.648;23.406;2024-02-26T08:34:39;99155.59;;;33.76;18.78
6349;BME280;3207;42.648;23.406;2024-02-26T08:37:06;99158.22;;;34.86;17.96
6349;BME280;3207;42.648;23.406;2024-02-26T08:39:34;99153.75;;;35.71;17.11
6349;BME280;3207;42.648;23.406;2024-02-26T08:42:01;99165.84;;;36.57;16.48
6349;BME280;3207;42.648;23.406;2024-02-26T08:44:28;99159.47;;;37.02;16.40
6349;BME280;3207;42.648;23.406;2024-02-26T08:46:55;99157.72;;;37.20;15.54
6349;BME280;3207;42.648;23.406;2024-02-26T08:49:22;99163.28;;;37.73;15.57
6349;BME280;3207;42.648;23.406;2024-02-26T08:51:49;99158.50;;;38.32;15.50
6349;BME280;3207;42.648;23.406;2024-02-26T08:54:16;99170.22;;;38.64;14.82
6349;BME280;3207;42.648;23.406;2024-02-26T08:56:45;99143.47;;;39.09;14.60
6349;BME280;3207;42.648;23.406;2024-02-26T08:59:12;99156.97;;;39.23;14.49
6349;BME280;3207;42.648;23.406;2024-02-26T09:01:41;99169.34;;;38.15;14.70
6349;BME280;3207;42.648;23.406;2024-02-26T09:04:08;99167.28;;;38.21;14.70
6349;BME280;3207;42.648;23.406;2024-02-26T09:06:35;99151.22;;;38.19;14.81
6349;BME280;3207;42.648;23.406;2024-02-26T09:09:02;99151.28;;;38.85;14.29
6349;BME280;3207;42.648;23.406;2024-02-26T09:11:30;99167.59;;;39.76;14.16
6349;BME280;3207;42.648;23.406;2024-02-26T09:13:58;99176.50;;;40.37;13.50
6349;BME280;3207;42.648;23.406;2024-02-26T09:16:25;99177.22;;;41.13;13.06
6349;BME280;3207;42.648;23.406;2024-02-26T09:18:52;99161.94;;;40.45;13.69
6349;BME280;3207;42.648;23.406;2024-02-26T09:21:19;99181.03;;;40.71;12.96
6349;BME280;3207;42.648;23.406;2024-02-26T09:23:48;99181.72;;;41.39;13.00
6349;BME280;3207;42.648;23.406;2024-02-26T09:26:15;99174.66;;;41.71;12.98
6349;BME280;3207;42.648;23.406;2024-02-26T09:28:43;99174.53;;;41.25;13.19
6349;BME280;3207;42.648;23.406;2024-02-26T09:31:11;99172.28;;;41.27;13.33
6349;BME280;3207;42.648;23.406;2024-02-26T09:33:41;99177.03;;;41.93;12.89
6349;BME280;3207;42.648;23.406;2024-02-26T09:36:10;99174.41;;;42.54;12.10
6349;BME280;3207;42.648;23.406;2024-02-26T09:38:37;99178.94;;;43.11;11.76
6349;BME280;3207;42.648;23.406;2024-02-26T09:41:05;99180.94;;;43.66;11.70
6349;BME280;3207;42.648;23.406;2024-02-26T09:43:34;99186.84;;;44.08;11.65
6349;BME280;3207;42.648;23.406;2024-02-26T09:46:02;99182.66;;;43.98;11.61
6349;BME280;3207;42.648;23.406;2024-02-26T09:48:31;99180.34;;;42.92;11.80
6349;BME280;3207;42.648;23.406;2024-02-26T09:50:59;99161.06;;;42.31;11.75
6349;BME280;3207;42.648;23.406;2024-02-26T09:53:29;99188.03;;;42.87;11.63
6349;BME280;3207;42.648;23.406;2024-02-26T09:55:57;99148.00;;;41.71;12.40
6349;BME280;3207;42.648;23.406;2024-02-26T09:58:25;99116.31;;;41.86;12.02
6349;BME280;3207;42.648;23.406;2024-02-26T10:00:56;99164.91;;;40.90;12.35
6349;BME280;3207;42.648;23.406;2024-02-26T10:03:28;99162.59;;;39.00;13.11
6349;BME280;3207;42.648;23.406;2024-02-26T10:05:58;99146.75;;;38.01;13.86
6349;BME280;3207;42.648;23.406;2024-02-26T10:08:28;99161.00;;;39.34;13.12
6349;BME280;3207;42.648;23.406;2024-02-26T10:10:56;99164.13;;;40.22;12.65
6349;BME280;3207;42.648;23.406;2024-02-26T10:13:26;99175.50;;;39.60;12.28
6349;BME280;3207;42.648;23.406;2024-02-26T10:15:53;99174.41;;;38.30;13.14
6349;BME280;3207;42.648;23.406;2024-02-26T10:18:20;99165.56;;;37.58;13.86
6349;BME280;3207;42.648;23.406;2024-02-26T10:21:00;99160.25;;;37.75;13.81
6349;BME280;3207;42.648;23.406;2024-02-26T10:23:27;99156.47;;;37.62;13.62
6349;BME280;3207;42.648;23.406;2024-02-26T10:25:55;99160.25;;;38.68;13.16
6349;BME280;3207;42.648;23.406;2024-02-26T10:28:22;99160.34;;;39.11;12.79
6349;BME280;3207;42.648;23.406;2024-02-26T10:30:51;99161.00;;;39.68;12.89
6349;BME280;3207;42.648;23.406;2024-02-26T10:33:18;99127.22;;;38.07;13.02
6349;BME280;3207;42.648;23.406;2024-02-26T10:35:46;99153.59;;;38.52;13.22
6349;BME280;3207;42.648;23.406;2024-02-26T10:38:14;99145.03;;;39.79;12.55
6349;BME280;3207;42.648;23.406;2024-02-26T10:40:45;99151.13;;;42.27;11.36
6349;BME280;3207;42.648;23.406;2024-02-26T10:43:12;99154.03;;;43.31;9.99
6349;BME280;3207;42.648;23.406;2024-02-26T10:45:40;99076.84;;;42.76;9.93
6349;BME280;3207;42.648;23.406;2024-02-26T10:48:10;99145.38;;;42.20;10.45
6349;BME280;3207;42.648;23.406;2024-02-26T10:50:38;99144.00;;;41.69;10.74
6349;BME280;3207;42.648;23.406;2024-02-26T10:53:13;99130.34;;;40.01;11.39
6349;BME280;3207;42.648;23.406;2024-02-26T10:55:43;99125.00;;;40.51;11.79
6349;BME280;3207;42.648;23.406;2024-02-26T10:58:13;99128.44;;;40.39;10.77
6349;BME280;3207;42.648;23.406;2024-02-26T11:00:41;99127.06;;;40.83;11.12
6349;BME280;3207;42.648;23.406;2024-02-26T11:03:09;99131.63;;;42.08;9.70
6349;BME280;3207;42.648;23.406;2024-02-26T11:05:37;99119.41;;;41.18;10.04
6349;BME280;3207;42.648;23.406;2024-02-26T11:08:06;99122.00;;;40.65;10.30
6349;BME280;3207;42.648;23.406;2024-02-26T11:10:34;99105.63;;;39.71;10.75
6349;BME280;3207;42.648;23.406;2024-02-26T11:13:02;99095.13;;;38.78;10.81
6349;BME280;3207;42.648;23.406;2024-02-26T11:15:32;99102.81;;;37.80;11.74
6349;BME280;3207;42.648;23.406;2024-02-26T11:17:59;99093.44;;;35.50;13.48
6349;BME280;3207;42.648;23.406;2024-02-26T11:20:28;99084.31;;;33.36;14.83
6349;BME280;3207;42.648;23.406;2024-02-26T11:22:58;99078.97;;;31.47;16.27
6349;BME280;3207;42.648;23.406;2024-02-26T11:25:25;99071.94;;;29.85;17.45
6349;BME280;3207;42.648;23.406;2024-02-26T11:27:55;99066.56;;;31.56;16.68
6349;BME280;3207;42.648;23.406;2024-02-26T11:30:26;99069.72;;;33.61;15.31
6349;BME280;3207;42.648;23.406;2024-02-26T11:32:57;99084.50;;;33.45;14.87
6349;BME280;3207;42.648;23.406;2024-02-26T11:35:24;99071.59;;;34.19;14.47
6349;BME280;3207;42.648;23.406;2024-02-26T11:37:53;99059.06;;;34.65;14.48
6349;BME280;3207;42.648;23.406;2024-02-26T11:40:22;99053.00;;;33.49;14.87
6349;BME280;3207;42.648;23.406;2024-02-26T11:42:50;99051.19;;;32.56;15.32
6349;BME280;3207;42.648;23.406;2024-02-26T11:45:54;99050.34;;;31.86;15.76
6349;BME280;3207;42.648;23.406;2024-02-26T11:48:25;99035.50;;;31.33;16.14
6349;BME280;3207;42.648;23.406;2024-02-26T11:50:53;99041.72;;;31.34;16.23
6349;BME280;3207;42.648;23.406;2024-02-26T11:53:21;99041.09;;;30.71;17.04
6349;BME280;3207;42.648;23.406;2024-02-26T11:55:48;99012.03;;;29.78;17.66
6349;BME280;3207;42.648;23.406;2024-02-26T11:58:15;99032.72;;;29.31;18.53
6349;BME280;3207;42.648;23.406;2024-02-26T12:00:42;99023.28;;;28.48;19.02
6349;BME280;3207;42.648;23.406;2024-02-26T12:03:11;99028.91;;;28.24;19.38
6349;BME280;3207;42.648;23.406;2024-02-26T12:05:39;99022.28;;;29.07;18.62
6349;BME280;3207;42.648;23.406;2024-02-26T12:08:07;99025.06;;;29.18;17.99
6349;BME280;3207;42.648;23.406;2024-02-26T12:10:36;99025.03;;;29.12;18.18
6349;BME280;3207;42.648;23.406;2024-02-26T12:13:06;99025.50;;;28.56;18.39
6349;BME280;3207;42.648;23.406;2024-02-26T12:15:37;99013.44;;;28.15;18.81
6349;BME280;3207;42.648;23.406;2024-02-26T12:18:05;99025.84;;;27.10;19.62
6349;BME280;3207;42.648;23.406;2024-02-26T12:20:34;99019.94;;;26.40;20.17
6349;BME280;3207;42.648;23.406;2024-02-26T12:23:04;98965.25;;;25.61;21.04
6349;BME280;3207;42.648;23.406;2024-02-26T12:25:32;99010.31;;;25.22;21.99
6349;BME280;3207;42.648;23.406;2024-02-26T12:28:00;99019.16;;;24.81;22.28
6349;BME280;3207;42.648;23.406;2024-02-26T12:30:27;99012.00;;;24.33;22.83
6349;BME280;3207;42.648;23.406;2024-02-26T12:32:56;98932.56;;;23.56;23.48
6349;BME280;3207;42.648;23.406;2024-02-26T12:35:26;99017.00;;;23.68;23.76
6349;BME280;3207;42.648;23.406;2024-02-26T12:37:55;99017.69;;;23.32;24.11
6349;BME280;3207;42.648;23.406;2024-02-26T12:40:22;99016.56;;;22.97;24.49
6349;BME280;3207;42.648;23.406;2024-02-26T12:42:50;99022.66;;;22.66;24.40
6349;BME280;3207;42.648;23.406;2024-02-26T12:45:21;99016.59;;;22.52;24.40
6349;BME280;3207;42.648;23.406;2024-02-26T12:47:49;99028.88;;;22.47;24.17
6349;BME280;3207;42.648;23.406;2024-02-26T12:50:16;99028.94;;;22.40;24.25
6349;BME280;3207;42.648;23.406;2024-02-26T12:52:45;99028.72;;;22.42;24.27
6349;BME280;3207;42.648;23.406;2024-02-26T12:55:18;99000.72;;;22.26;24.20
6349;BME280;3207;42.648;23.406;2024-02-26T12:57:45;99027.44;;;22.51;24.07
6349;BME280;3207;42.648;23.406;2024-02-26T13:00:16;99026.63;;;22.50;23.93
6349;BME280;3207;42.648;23.406;2024-02-26T13:02:45;99035.16;;;22.66;24.04
6349;BME280;3207;42.648;23.406;2024-02-26T13:05:14;99018.09;;;22.80;24.09
6349;BME280;3207;42.648;23.406;2024-02-26T13:07:42;99017.03;;;22.87;24.13
6349;BME280;3207;42.648;23.406;2024-02-26T13:10:10;99012.84;;;22.98;23.92
6349;BME280;3207;42.648;23.406;2024-02-26T13:12:43;99017.31;;;23.04;24.25
6349;BME280;3207;42.648;23.406;2024-02-26T13:15:14;99021.34;;;23.13;24.29
6349;BME280;3207;42.648;23.406;2024-02-26T13:17:42;98971.66;;;22.94;24.35
6349;BME280;3207;42.648;23.406;2024-02-26T13:20:09;99014.72;;;23.22;24.26